Buffalo, MN (55313)

12:22 AM CDT on August 05, 2015 (GMT -0500)
Buffalo Hills | | Change Station
CLOSE
Current Station
Personal Weather Station
Location: Buffalo, MN
Elevation: 1004 ft
Nearby Weather Stations

Elev 1004 ft 45.18 °N, 93.87 °W | Updated 48 seconds ago

Clear
Clear
65.8 °F
Feels Like 65.8 °F
N
0.0
Wind Variable Wind from North
Gusts 0.0 mph

Today
High -- | Low -- °F
--% Chance of Precip.
Yesterday
High -- | Low -- °F
Precip. -- in
6:04 AM 8:37 PM
Waning Gibbous, 71% visible
Pressure 30.04 in
Visibility 10.0 miles
Clouds Clear
Dew Point 58 °F
Humidity 75%
Rainfall 0.00 in
Snow Depth Not available.
UV 0 out of 12
Pollen 6.80 out of 12
Air Quality Not available.
Flu Activity Not available.
METAR KCFE 050515Z AUTO 00000KT 10SM CLR 16/13 A3004 RMK AO2 T01620132

More Conditions Fewer Conditions

Pressure 30.04 in
Visibility 10.0 miles
Clouds Clear
Dew Point 58 °F
Humidity 75%
Rainfall 0.00 in
Snow Depth Not available.
UV 0 out of 12
Pollen 6.80 out of 12
Air Quality Not available.
Flu Activity Not available.
METAR KCFE 050515Z AUTO 00000KT 10SM CLR 16/13 A3004 RMK AO2 T01620132

More Conditions Fewer Conditions

10-Day Weather Forecast

×

Almanac

Astronomy

Aug. 05, 2015 Rise Set
Actual Time
Civil Twilight
Nautical Twilight
Astronomical Twilight
Moon
Length of Visible Light
Length of Day
Tomorrow will be .
, % of the Moon is Illuminated

Today's Extremes

State Highs State Lows

Community

WunderPhotos

Upload Photos

1,844,098 photos uploaded!

WunderBlogs® & News

Nearby

Air Quality

  Air Quality AQ Index Pollutant
Not available.

Snow Depth

Station Depth Elevation

Earthquake Activity

City Distance Mag. Time & Date
Minimum magnitude displayed is 2.5.

Coastal Water Temperatures

Place Temperature

Stations

Nearby Weather Stations

Station Location Temp. Windchill Dew Point Humidity Wind Precip. Elev Updated Type